createdAt,value
2023-02-08T00:01:54.334Z,17.47
2023-02-08T00:04:22.890Z,13.27
2023-02-08T00:06:57.382Z,20.10
2023-02-08T00:12:18.860Z,14.17
2023-02-08T00:14:47.596Z,15.83
2023-02-08T00:17:16.131Z,16.37
2023-02-08T00:19:44.947Z,16.40
2023-02-08T00:22:18.044Z,14.33
2023-02-08T00:24:46.938Z,13.87
2023-02-08T00:27:16.105Z,15.87
2023-02-08T00:29:44.975Z,21.93
2023-02-08T00:32:13.876Z,14.90
2023-02-08T00:34:42.651Z,14.60
2023-02-08T00:37:11.179Z,19.20
2023-02-08T00:39:43.530Z,21.23
2023-02-08T00:42:12.661Z,23.03
2023-02-08T00:44:41.391Z,16.33
2023-02-08T00:47:09.918Z,17.33
2023-02-08T00:49:45.756Z,18.03
2023-02-08T00:52:14.787Z,14.67
2023-02-08T00:54:48.464Z,16.27
2023-02-08T00:57:17.257Z,13.60
2023-02-08T00:59:45.903Z,21.50
2023-02-08T01:02:14.334Z,18.30
2023-02-08T01:04:43.093Z,16.50
2023-02-08T01:07:13.707Z,16.80
2023-02-08T01:09:46.898Z,17.37
2023-02-08T01:12:15.411Z,13.63
2023-02-08T01:14:44.217Z,18.33
2023-02-08T01:17:12.908Z,15.43
2023-02-08T01:19:42.588Z,21.23
2023-02-08T01:22:11.142Z,21.20
2023-02-08T01:24:40.104Z,12.43
2023-02-08T01:27:10.046Z,20.40
2023-02-08T01:29:39.160Z,23.87
2023-02-08T01:32:07.628Z,15.90
2023-02-08T01:34:36.202Z,13.73
2023-02-08T01:37:05.317Z,11.43
2023-02-08T01:39:34.375Z,14.73
2023-02-08T01:42:05.938Z,16.50
2023-02-08T01:48:48.440Z,16.03
2023-02-08T01:51:20.559Z,18.07
2023-02-08T01:53:50.489Z,12.00
2023-02-08T01:56:32.929Z,20.77
2023-02-08T01:59:03.805Z,18.40
2023-02-08T02:01:33.043Z,25.10
2023-02-08T02:04:04.591Z,19.00
2023-02-08T02:06:36.569Z,14.80
2023-02-08T02:09:11.685Z,15.63
2023-02-08T02:11:41.050Z,10.93
2023-02-08T02:14:10.310Z,15.27
2023-02-08T02:16:38.907Z,16.00
2023-02-08T02:19:17.666Z,16.77
2023-02-08T02:21:53.239Z,13.63
2023-02-08T02:24:44.169Z,15.27
2023-02-08T02:27:22.697Z,17.10
2023-02-08T02:30:35.820Z,12.67
2023-02-08T02:33:33.337Z,16.33
2023-02-08T02:36:05.119Z,14.57
2023-02-08T02:38:42.409Z,14.67
2023-02-08T02:41:41.433Z,13.90
2023-02-08T02:44:16.910Z,14.10
2023-02-08T02:46:49.622Z,16.73
2023-02-08T02:49:24.407Z,21.13
2023-02-08T02:51:58.545Z,15.07
2023-02-08T02:54:32.958Z,14.47
2023-02-08T02:57:05.912Z,19.10
2023-02-08T02:59:34.890Z,13.50
2023-02-08T03:02:04.274Z,15.80
2023-02-08T03:04:52.070Z,13.37
2023-02-08T03:07:33.612Z,18.37
2023-02-08T03:10:08.331Z,13.90
2023-02-08T03:12:41.632Z,10.00
2023-02-08T03:15:18.454Z,17.70
2023-02-08T03:17:59.341Z,14.80
2023-02-08T03:20:31.806Z,17.00
2023-02-08T03:23:03.223Z,14.30
2023-02-08T03:25:37.907Z,19.50
2023-02-08T03:28:11.342Z,16.27
2023-02-08T03:30:47.092Z,21.80
2023-02-08T03:33:19.031Z,27.43
2023-02-08T03:35:53.723Z,20.60
2023-02-08T03:38:26.228Z,19.83
2023-02-08T03:40:56.621Z,17.57
2023-02-08T03:43:45.602Z,19.40
2023-02-08T03:46:20.094Z,15.53
2023-02-08T03:48:55.122Z,19.23
2023-02-08T03:51:28.110Z,15.00
2023-02-08T03:53:57.664Z,17.93
2023-02-08T03:56:33.541Z,15.13
2023-02-08T03:59:03.947Z,18.20
2023-02-08T04:01:37.092Z,18.97
2023-02-08T04:04:09.534Z,19.93
2023-02-08T04:06:40.516Z,18.30
2023-02-08T04:09:09.773Z,19.10
2023-02-08T04:11:44.697Z,21.50
2023-02-08T04:14:13.601Z,26.47
2023-02-08T04:16:41.975Z,20.47
2023-02-08T04:19:10.501Z,27.97
2023-02-08T04:21:40.810Z,17.23
2023-02-08T04:24:09.521Z,23.93
2023-02-08T04:26:38.624Z,21.10
2023-02-08T04:29:07.298Z,18.43
2023-02-08T04:31:47.152Z,25.90
2023-02-08T04:34:17.515Z,19.00
2023-02-08T04:36:47.400Z,18.37
2023-02-08T04:39:15.878Z,22.57
2023-02-08T04:41:44.452Z,23.47
2023-02-08T04:44:12.920Z,21.37
2023-02-08T04:46:41.579Z,24.67
2023-02-08T04:49:10.820Z,21.27
2023-02-08T04:51:39.609Z,19.43
2023-02-08T04:54:09.664Z,23.60
2023-02-08T04:56:38.955Z,30.90
2023-02-08T04:59:07.588Z,31.80
2023-02-08T05:01:36.255Z,24.77
2023-02-08T05:04:05.584Z,29.53
2023-02-08T05:06:33.948Z,25.87
2023-02-08T05:09:04.224Z,24.70
2023-02-08T05:11:34.377Z,25.03
2023-02-08T05:14:02.872Z,19.77
2023-02-08T05:16:31.670Z,27.23
2023-02-08T05:19:00.469Z,20.07
2023-02-08T05:21:31.984Z,24.97
2023-02-08T05:24:00.463Z,24.27
2023-02-08T05:26:31.202Z,23.77
2023-02-08T05:29:01.215Z,17.80
2023-02-08T05:31:30.311Z,19.27
2023-02-08T05:33:59.348Z,23.63
2023-02-08T05:36:27.822Z,19.90
2023-02-08T05:38:56.849Z,25.13
2023-02-08T05:41:25.829Z,24.93
2023-02-08T05:44:02.598Z,25.57
2023-02-08T05:46:31.403Z,21.87
2023-02-08T05:49:00.307Z,25.13
2023-02-08T05:51:28.832Z,25.17
2023-02-08T05:53:58.527Z,20.03
2023-02-08T05:56:28.205Z,25.03
2023-02-08T05:58:57.130Z,20.83
2023-02-08T06:01:28.739Z,27.73
2023-02-08T06:04:00.281Z,23.40
2023-02-08T06:06:28.977Z,23.37
2023-02-08T06:08:57.615Z,22.30
2023-02-08T06:11:28.172Z,20.43
2023-02-08T06:13:59.107Z,20.43
2023-02-08T06:16:29.121Z,17.77
2023-02-08T06:18:57.926Z,32.87
2023-02-08T06:21:26.931Z,23.13
2023-02-08T06:23:55.789Z,22.60
2023-02-08T06:26:49.767Z,18.10
2023-02-08T06:29:18.806Z,20.93
2023-02-08T06:31:49.133Z,18.90
2023-02-08T06:34:17.731Z,21.60
2023-02-08T06:36:46.876Z,17.43
2023-02-08T06:39:15.557Z,22.10
2023-02-08T06:41:44.440Z,21.13
2023-02-08T06:44:13.080Z,20.20
2023-02-08T06:46:41.722Z,22.53
2023-02-08T06:49:13.113Z,24.13
2023-02-08T06:51:41.798Z,18.90
2023-02-08T06:54:13.688Z,25.70
2023-02-08T06:56:44.898Z,17.80
2023-02-08T06:59:15.721Z,19.43
2023-02-08T07:01:44.452Z,24.30
2023-02-08T07:04:48.324Z,23.33
2023-02-08T07:07:18.458Z,15.80
2023-02-08T07:09:47.110Z,23.77
2023-02-08T07:12:15.891Z,23.20
2023-02-08T07:14:45.129Z,23.10
2023-02-08T07:17:14.846Z,31.40
2023-02-08T07:19:43.153Z,33.20
2023-02-08T07:22:13.491Z,30.73
2023-02-08T07:24:42.974Z,21.17
2023-02-08T07:27:18.305Z,14.73
2023-02-08T07:30:10.552Z,22.80
2023-02-08T07:33:04.817Z,13.97
2023-02-08T07:35:48.318Z,18.47
2023-02-08T07:38:20.719Z,20.40
2023-02-08T07:40:52.223Z,20.10
2023-02-08T07:43:20.796Z,16.73
2023-02-08T07:45:50.036Z,12.20
2023-02-08T07:48:18.519Z,18.40
2023-02-08T07:50:49.794Z,26.30
2023-02-08T07:53:19.755Z,23.90
2023-02-08T07:55:50.802Z,21.83
2023-02-08T07:58:19.445Z,17.20
2023-02-08T08:00:49.104Z,17.90
2023-02-08T08:03:17.746Z,18.37
2023-02-08T08:05:46.814Z,18.47
2023-02-08T08:08:18.629Z,17.17
2023-02-08T08:10:49.689Z,18.30
2023-02-08T08:13:18.106Z,21.30
2023-02-08T08:15:46.991Z,19.10
2023-02-08T08:18:15.865Z,22.77
2023-02-08T08:20:44.637Z,17.70
2023-02-08T08:23:13.383Z,17.90
2023-02-08T08:25:42.309Z,17.67
2023-02-08T08:28:12.156Z,16.57
2023-02-08T08:30:44.987Z,21.73
2023-02-08T08:33:14.408Z,20.77
2023-02-08T08:35:47.551Z,18.97
2023-02-08T08:38:18.611Z,21.93
2023-02-08T08:40:47.357Z,20.77
2023-02-08T08:43:17.680Z,23.10
2023-02-08T08:45:46.980Z,24.57
2023-02-08T08:48:16.089Z,27.67
2023-02-08T08:50:45.109Z,27.80
2023-02-08T08:53:14.073Z,25.60
2023-02-08T08:55:44.347Z,26.50
2023-02-08T08:58:14.411Z,26.83
2023-02-08T09:00:44.427Z,25.87
2023-02-08T09:03:13.420Z,26.97
2023-02-08T09:05:42.537Z,31.30
2023-02-08T09:08:14.004Z,21.17
2023-02-08T09:10:44.720Z,22.63
2023-02-08T09:13:19.704Z,26.73
2023-02-08T09:15:50.310Z,22.03
2023-02-08T09:18:19.075Z,20.70
2023-02-08T09:20:48.356Z,18.10
2023-02-08T09:23:17.271Z,20.40
2023-02-08T09:25:45.977Z,20.23
2023-02-08T09:28:14.621Z,15.90
2023-02-08T09:30:46.616Z,19.30
2023-02-08T09:33:16.800Z,19.73
2023-02-08T09:35:45.650Z,19.13
2023-02-08T09:38:14.772Z,15.77
2023-02-08T09:40:50.028Z,17.77
2023-02-08T09:43:22.662Z,12.80
2023-02-08T09:45:59.967Z,13.63
2023-02-08T09:48:35.797Z,21.47
2023-02-08T09:51:12.646Z,17.23
2023-02-08T09:53:54.843Z,12.63
2023-02-08T09:56:29.258Z,17.70
2023-02-08T09:59:02.578Z,13.43
2023-02-08T10:01:34.319Z,15.33
2023-02-08T10:04:09.123Z,13.80
2023-02-08T10:06:58.757Z,29.30
2023-02-08T10:09:29.863Z,15.03
2023-02-08T10:12:08.492Z,15.00
2023-02-08T10:15:01.033Z,16.90
2023-02-08T10:17:41.211Z,14.00
2023-02-08T10:20:28.405Z,24.17
2023-02-08T10:23:05.769Z,20.00
2023-02-08T10:25:48.422Z,32.17
2023-02-08T10:28:30.536Z,32.20
2023-02-08T10:31:04.567Z,24.53
2023-02-08T10:33:38.077Z,55.07
2023-02-08T10:36:15.223Z,35.33
2023-02-08T10:38:47.184Z,28.43
2023-02-08T10:41:35.136Z,12.63
2023-02-08T10:44:07.502Z,11.83
2023-02-08T10:46:41.980Z,11.03
2023-02-08T10:49:34.072Z,8.77
2023-02-08T10:52:04.435Z,12.30
2023-02-08T10:54:32.970Z,10.20
2023-02-08T10:57:04.752Z,12.07
2023-02-08T10:59:35.610Z,10.27
2023-02-08T11:02:06.836Z,8.60
2023-02-08T11:04:35.403Z,9.60
2023-02-08T11:07:21.286Z,11.40
2023-02-08T11:09:49.929Z,12.57
2023-02-08T11:12:20.890Z,12.20
2023-02-08T11:14:51.010Z,20.97
2023-02-08T11:17:30.657Z,10.43
2023-02-08T11:20:02.574Z,10.67
2023-02-08T11:22:34.703Z,7.07
2023-02-08T11:25:05.636Z,8.10
2023-02-08T11:27:41.552Z,9.40
2023-02-08T11:30:24.798Z,13.57
2023-02-08T11:33:19.620Z,9.87
2023-02-08T11:36:08.123Z,7.97
2023-02-08T11:38:45.230Z,8.73
2023-02-08T11:41:20.023Z,7.77
2023-02-08T11:43:57.672Z,9.23
2023-02-08T11:46:27.738Z,13.30
2023-02-08T11:48:57.191Z,7.87
2023-02-08T11:51:28.934Z,6.53
2023-02-08T11:54:00.728Z,8.57
2023-02-08T11:56:46.880Z,5.70
2023-02-08T11:59:24.043Z,7.53
2023-02-08T12:01:58.124Z,8.73
2023-02-08T12:04:26.866Z,9.93
2023-02-08T12:07:15.525Z,15.40
2023-02-08T12:10:20.084Z,9.93
2023-02-08T12:13:12.687Z,18.53
2023-02-08T12:15:57.764Z,12.43
2023-02-08T12:18:44.728Z,11.77
2023-02-08T12:21:20.165Z,14.00
2023-02-08T12:23:56.073Z,11.40
2023-02-08T12:26:40.353Z,11.67
2023-02-08T12:29:19.900Z,8.60
2023-02-08T12:32:01.988Z,10.57
2023-02-08T12:34:44.517Z,10.63
2023-02-08T12:37:40.906Z,9.37
2023-02-08T12:40:36.685Z,10.57
2023-02-08T12:43:14.977Z,10.57
2023-02-08T12:46:12.541Z,10.40
2023-02-08T12:48:58.746Z,9.63
2023-02-08T12:51:32.914Z,13.37
2023-02-08T12:54:06.322Z,9.10
2023-02-08T12:56:37.425Z,8.90
2023-02-08T12:59:13.530Z,16.43
2023-02-08T13:01:46.714Z,18.17
2023-02-08T13:04:21.765Z,13.67
2023-02-08T13:06:53.597Z,22.20
2023-02-08T13:09:35.855Z,13.17
2023-02-08T13:12:08.548Z,13.93
2023-02-08T13:14:41.969Z,15.33
2023-02-08T13:17:20.072Z,12.90
2023-02-08T13:20:00.565Z,13.50
2023-02-08T13:22:33.254Z,10.00
2023-02-08T13:25:08.437Z,12.00
2023-02-08T13:27:37.565Z,12.23
2023-02-08T13:30:08.936Z,8.73
2023-02-08T13:32:44.088Z,10.17
2023-02-08T13:35:19.403Z,9.30
2023-02-08T13:37:52.622Z,10.40
2023-02-08T13:40:28.420Z,11.63
2023-02-08T13:43:01.122Z,11.73
2023-02-08T13:45:33.145Z,12.73
2023-02-08T13:48:06.105Z,14.13
2023-02-08T13:50:46.942Z,18.70
2023-02-08T13:53:17.680Z,21.33
2023-02-08T13:56:09.049Z,15.10
2023-02-08T13:59:05.943Z,12.33
2023-02-08T14:02:27.235Z,12.40
2023-02-08T14:05:15.879Z,20.00
2023-02-08T14:07:46.083Z,14.43
2023-02-08T14:10:41.442Z,10.53
2023-02-08T14:13:25.160Z,14.00
2023-02-08T14:16:25.046Z,11.73
2023-02-08T14:18:54.635Z,12.90
2023-02-08T14:21:32.217Z,10.77
2023-02-08T14:24:03.609Z,12.30
2023-02-08T14:26:32.811Z,17.73
2023-02-08T14:29:03.576Z,16.83
2023-02-08T14:31:41.183Z,16.30
2023-02-08T14:34:23.081Z,13.40
2023-02-08T14:37:06.224Z,15.00
2023-02-08T14:39:37.605Z,15.23
2023-02-08T14:42:09.049Z,14.83
2023-02-08T14:44:58.516Z,17.07
2023-02-08T14:48:08.079Z,15.57
2023-02-08T14:50:51.773Z,15.37
2023-02-08T14:53:27.193Z,13.50
2023-02-08T14:55:59.910Z,11.60
2023-02-08T14:58:31.820Z,15.57
2023-02-08T15:01:03.948Z,13.53
2023-02-08T15:03:34.097Z,11.50
2023-02-08T15:06:17.212Z,14.63
2023-02-08T15:08:51.204Z,18.80
2023-02-08T15:11:27.614Z,15.47
2023-02-08T15:14:02.210Z,19.73
2023-02-08T15:16:34.507Z,26.27
2023-02-08T15:19:04.849Z,21.63
2023-02-08T15:21:36.918Z,24.73
2023-02-08T15:24:15.784Z,15.13
2023-02-08T15:26:48.582Z,18.80
2023-02-08T15:29:26.173Z,21.60
2023-02-08T15:32:01.766Z,33.00
2023-02-08T15:34:30.644Z,25.33
2023-02-08T15:37:00.266Z,26.23
2023-02-08T15:39:36.141Z,29.30
2023-02-08T15:42:07.655Z,27.20
2023-02-08T15:44:36.667Z,35.67
2023-02-08T15:47:06.844Z,36.47
2023-02-08T15:49:37.963Z,28.70
2023-02-08T15:52:08.083Z,19.20
2023-02-08T15:54:38.138Z,18.53
2023-02-08T15:57:09.717Z,19.97
2023-02-08T15:59:40.737Z,26.50
2023-02-08T16:02:35.978Z,36.43
2023-02-08T16:05:14.204Z,15.47
2023-02-08T16:07:47.783Z,29.67
2023-02-08T16:10:26.972Z,24.23
2023-02-08T16:13:02.775Z,20.43
2023-02-08T16:15:45.685Z,17.00
2023-02-08T16:18:36.356Z,12.97
2023-02-08T16:21:07.816Z,16.53
2023-02-08T16:23:40.733Z,29.30
2023-02-08T16:26:19.526Z,24.50
2023-02-08T16:28:55.118Z,14.10
2023-02-08T16:31:30.328Z,14.60
2023-02-08T16:34:01.638Z,19.43
2023-02-08T16:36:36.892Z,16.10
2023-02-08T16:39:48.209Z,18.27
2023-02-08T16:42:36.974Z,15.30
2023-02-08T16:45:23.521Z,11.73
2023-02-08T16:47:54.368Z,19.33
2023-02-08T16:50:24.989Z,16.07
2023-02-08T16:52:56.122Z,15.60
2023-02-08T16:55:26.843Z,14.10
2023-02-08T16:57:58.901Z,19.03
2023-02-08T17:00:29.642Z,24.50
2023-02-08T17:02:59.238Z,23.93
2023-02-08T17:05:30.134Z,21.87
2023-02-08T17:07:58.948Z,16.30
2023-02-08T17:10:29.316Z,20.93
2023-02-08T17:13:17.402Z,11.57
2023-02-08T17:15:49.650Z,17.30
2023-02-08T17:18:18.318Z,19.60
2023-02-08T17:20:47.677Z,13.40
2023-02-08T17:23:18.501Z,18.37
2023-02-08T17:25:50.201Z,17.37
2023-02-08T17:28:23.069Z,12.13
2023-02-08T17:30:53.372Z,20.63
2023-02-08T17:33:22.063Z,18.13
2023-02-08T17:35:54.120Z,16.03
2023-02-08T17:38:28.841Z,14.30
2023-02-08T17:41:00.470Z,14.40
2023-02-08T17:43:30.855Z,15.33
2023-02-08T17:46:01.321Z,15.20
2023-02-08T17:48:30.609Z,21.60
2023-02-08T17:51:03.074Z,17.57
2023-02-08T17:53:33.340Z,12.30
2023-02-08T17:56:02.892Z,14.37
2023-02-08T17:58:33.146Z,17.60
2023-02-08T18:01:02.116Z,14.83
2023-02-08T18:03:31.161Z,11.60
2023-02-08T18:06:01.285Z,16.03
2023-02-08T18:08:30.375Z,15.17
2023-02-08T18:11:04.839Z,16.53
2023-02-08T18:13:41.100Z,14.07
2023-02-08T18:16:10.914Z,17.40
2023-02-08T18:18:39.766Z,13.90
2023-02-08T18:21:13.871Z,20.50
2023-02-08T18:23:43.517Z,19.00
2023-02-08T18:26:14.642Z,18.67
2023-02-08T18:28:45.429Z,22.77
2023-02-08T18:31:20.420Z,23.40
2023-02-08T18:33:50.936Z,22.03
2023-02-08T18:36:20.854Z,53.63
2023-02-08T18:38:51.575Z,36.47
2023-02-08T18:41:23.445Z,18.57
2023-02-08T18:43:55.145Z,14.23
2023-02-08T18:46:28.542Z,16.43
2023-02-08T18:48:58.250Z,15.37
2023-02-08T18:51:31.419Z,13.77
2023-02-08T18:54:00.898Z,17.97
2023-02-08T18:56:30.017Z,21.60
2023-02-08T18:59:01.099Z,18.13
2023-02-08T19:01:32.658Z,19.17
2023-02-08T19:04:02.507Z,15.83
2023-02-08T19:06:32.832Z,20.93
2023-02-08T19:09:05.114Z,13.27
2023-02-08T19:11:35.786Z,16.43
2023-02-08T19:14:07.816Z,12.27
2023-02-08T19:16:38.229Z,12.50
2023-02-08T19:19:08.198Z,11.67
2023-02-08T19:21:37.599Z,13.07
2023-02-08T19:24:07.316Z,12.73
2023-02-08T19:26:44.455Z,12.57
2023-02-08T19:29:22.138Z,10.47
2023-02-08T19:31:54.950Z,15.40
2023-02-08T19:34:25.203Z,17.47
2023-02-08T19:36:55.289Z,14.97
2023-02-08T19:39:26.120Z,14.70
2023-02-08T19:41:55.182Z,15.90
2023-02-08T19:44:26.447Z,12.47
2023-02-08T19:46:57.044Z,13.33
2023-02-08T19:49:27.537Z,17.63
2023-02-08T19:51:56.822Z,12.30
2023-02-08T19:54:28.994Z,14.87
2023-02-08T19:56:58.661Z,13.70
2023-02-08T19:59:34.105Z,13.00
2023-02-08T20:02:11.821Z,15.07
2023-02-08T20:04:40.993Z,12.40
2023-02-08T20:07:10.589Z,13.47
2023-02-08T20:09:39.614Z,14.40
2023-02-08T20:12:08.617Z,11.80
2023-02-08T20:14:50.411Z,14.47
2023-02-08T20:17:19.131Z,11.27
2023-02-08T20:19:48.108Z,16.80
2023-02-08T20:22:17.254Z,12.03
2023-02-08T20:24:46.296Z,11.53
2023-02-08T20:27:19.911Z,8.80
2023-02-08T20:29:50.743Z,8.50
2023-02-08T20:32:22.604Z,9.63
2023-02-08T20:34:59.788Z,11.23
2023-02-08T20:37:31.302Z,10.27
2023-02-08T20:40:00.160Z,12.03
2023-02-08T20:42:31.126Z,12.20
2023-02-08T20:45:01.129Z,10.00
2023-02-08T20:47:33.900Z,13.63
2023-02-08T20:50:17.938Z,11.50
2023-02-08T20:52:49.426Z,10.80
2023-02-08T20:55:18.436Z,21.53
2023-02-08T20:57:47.184Z,17.60
2023-02-08T21:00:17.717Z,15.70
2023-02-08T21:02:46.869Z,13.60
2023-02-08T21:05:15.418Z,12.43
2023-02-08T21:07:44.248Z,15.87
2023-02-08T21:10:12.822Z,15.90
2023-02-08T21:12:41.534Z,14.10
2023-02-08T21:15:11.247Z,10.27
2023-02-08T21:17:41.476Z,13.60
2023-02-08T21:20:12.157Z,11.47
2023-02-08T21:22:40.524Z,8.90
2023-02-08T21:25:14.784Z,13.17
2023-02-08T21:27:46.652Z,12.37
2023-02-08T21:30:15.668Z,19.70
2023-02-08T21:32:46.242Z,18.73
2023-02-08T21:35:15.776Z,12.13
2023-02-08T21:37:44.344Z,14.33
2023-02-08T21:40:13.223Z,9.67
2023-02-08T21:42:45.091Z,9.73
2023-02-08T21:45:14.818Z,10.43
2023-02-08T21:47:46.387Z,11.10
2023-02-08T21:50:34.246Z,8.50
2023-02-08T21:53:20.079Z,9.20
2023-02-08T21:55:49.243Z,12.57
2023-02-08T21:58:18.210Z,7.70
2023-02-08T22:00:46.959Z,8.33
2023-02-08T22:03:18.651Z,9.20
2023-02-08T22:06:06.331Z,7.73
2023-02-08T22:08:35.188Z,9.70
2023-02-08T22:11:04.913Z,11.27
2023-02-08T22:13:33.855Z,10.03
2023-02-08T22:16:02.692Z,11.47
2023-02-08T22:18:30.985Z,10.43
2023-02-08T22:21:01.395Z,7.33
2023-02-08T22:23:30.133Z,10.93
2023-02-08T22:25:58.907Z,9.43
2023-02-08T22:28:27.524Z,6.43
2023-02-08T22:30:57.168Z,7.40
2023-02-08T22:33:32.452Z,8.87
2023-02-08T22:36:02.482Z,11.17
2023-02-08T22:38:31.305Z,9.57
2023-02-08T22:41:02.034Z,11.60
2023-02-08T22:43:31.308Z,11.33
2023-02-08T22:46:02.940Z,9.93
2023-02-08T22:48:34.293Z,11.10
2023-02-08T22:51:08.827Z,10.43
2023-02-08T22:53:37.520Z,8.70
2023-02-08T22:56:06.930Z,9.90
2023-02-08T22:58:43.489Z,6.73
2023-02-08T23:01:12.638Z,7.37
2023-02-08T23:03:47.190Z,7.27
2023-02-08T23:06:18.337Z,7.97
2023-02-08T23:08:48.364Z,9.60
2023-02-08T23:11:17.424Z,9.80
2023-02-08T23:13:46.231Z,9.07
2023-02-08T23:16:15.360Z,11.50
2023-02-08T23:18:44.240Z,9.87
2023-02-08T23:21:15.511Z,9.90
2023-02-08T23:23:46.538Z,12.03
2023-02-08T23:26:16.797Z,8.23
2023-02-08T23:28:45.774Z,9.40
2023-02-08T23:31:16.737Z,8.27
2023-02-08T23:33:45.679Z,12.00
2023-02-08T23:36:18.376Z,6.60
2023-02-08T23:38:48.473Z,12.10
2023-02-08T23:41:19.287Z,10.57
2023-02-08T23:43:48.613Z,6.30
2023-02-08T23:46:19.161Z,8.53
2023-02-08T23:48:48.870Z,8.10
2023-02-08T23:51:19.153Z,9.80
2023-02-08T23:53:49.485Z,8.10
2023-02-08T23:56:19.948Z,8.20
2023-02-08T23:58:51.333Z,13.33
